Time;durP1;ratioP1;P1;durP2;ratioP2;P2;SDS_P1;SDS_P2;PMS_P1;PMS_P2;Temp;Humidity;BMP_temperature;BMP_pressure;BME280_temperature;BME280_humidity;BME280_pressure;Samples;Min_cycle;Max_cycle;Signal;HPM_P1;HPM_P2
2022/07/15 00:00:45;;;;;;;3.80;2.10;;;;;;;18.59;74.26;98468.34;104346;1278;74138;-24
2022/07/15 00:03:28;;;;;;;5.20;2.10;;;;;;;19.21;73.76;98463.79;104315;1277;74605;-24
2022/07/15 00:06:03;;;;;;;4.40;2.10;;;;;;;19.67;71.62;98460.45;104339;1277;71496;-24
2022/07/15 00:08:57;;;;;;;3.70;2.20;;;;;;;19.61;71.23;98459.94;104285;1277;61163;-24
2022/07/15 00:11:40;;;;;;;3.10;2.60;;;;;;;19.43;71.77;98461.91;104187;1277;61103;-24
2022/07/15 00:14:19;;;;;;;7.40;2.60;;;;;;;19.21;72.21;98463.08;104461;1277;74201;-24
2022/07/15 00:16:58;;;;;;;2.30;2.10;;;;;;;18.98;72.90;98463.30;104553;1274;74568;-24
2022/07/15 00:19:40;;;;;;;2.90;2.00;;;;;;;18.84;73.40;98459.19;104390;1272;74058;-23
2022/07/15 00:22:38;;;;;;;2.70;1.70;;;;;;;19.54;72.81;98451.55;104657;1271;61146;-24
2022/07/15 00:25:24;;;;;;;3.30;2.20;;;;;;;20.00;71.27;98443.20;104675;1271;61025;-24
2022/07/15 00:28:19;;;;;;;2.30;2.10;;;;;;;19.93;70.84;98437.16;104617;1272;73866;-24
2022/07/15 00:30:58;;;;;;;2.30;2.10;;;;;;;19.61;71.20;98430.17;104663;1274;73249;-24
2022/07/15 00:34:13;;;;;;;3.80;2.30;;;;;;;19.35;72.01;98427.69;104648;1274;72710;-24
2022/07/15 00:36:58;;;;;;;2.40;2.20;;;;;;;19.08;72.39;98421.48;104850;1274;61101;-25
2022/07/15 00:39:33;;;;;;;2.80;2.00;;;;;;;18.92;73.06;98417.04;104668;1274;61065;-24
2022/07/15 00:42:08;;;;;;;8.20;2.10;;;;;;;19.41;72.86;98414.21;104869;1274;73988;-24
2022/07/15 00:45:01;;;;;;;3.20;2.40;;;;;;;19.96;71.56;98416.98;104618;1272;73276;-24
2022/07/15 00:47:46;;;;;;;2.50;2.20;;;;;;;19.96;70.86;98423.27;104612;1274;70956;-24
2022/07/15 00:50:22;;;;;;;3.40;2.10;;;;;;;19.65;71.44;98430.38;104662;1274;61178;-23
2022/07/15 00:53:08;;;;;;;11.00;2.50;;;;;;;19.32;72.40;98431.13;105020;1271;61029;-24
2022/07/15 00:56:05;;;;;;;4.20;2.40;;;;;;;18.98;73.51;98420.05;104594;1274;74182;-24
2022/07/15 00:58:45;;;;;;;4.40;2.30;;;;;;;18.80;74.10;98413.71;104647;1271;73294;-23
2022/07/15 01:01:15;;;;;;;3.50;2.20;;;;;;;19.30;73.60;98419.73;104623;1274;72753;-24
2022/07/15 01:03:53;;;;;;;3.60;2.40;;;;;;;19.64;72.33;98421.15;104724;1274;61009;-24
2022/07/15 01:06:47;;;;;;;4.70;2.50;;;;;;;19.34;72.84;98427.44;105062;1271;61113;-24
2022/07/15 01:09:22;;;;;;;4.60;2.90;;;;;;;19.13;73.18;98428.90;104678;1271;72040;-24
2022/07/15 01:12:11;;;;;;;8.70;2.60;;;;;;;18.92;73.85;98426.58;104759;1271;73108;-23
2022/07/15 01:14:43;;;;;;;4.40;2.50;;;;;;;18.71;74.19;98418.65;104954;1271;72629;-24
2022/07/15 01:17:30;;;;;;;4.80;2.30;;;;;;;18.51;75.69;98417.27;104659;1271;61134;-24
2022/07/15 01:20:14;;;;;;;3.30;2.40;;;;;;;18.89;74.71;98411.99;105092;1271;61048;-24
2022/07/15 01:23:03;;;;;;;8.90;2.60;;;;;;;19.09;73.70;98412.23;104785;1271;74203;-24
2022/07/15 01:25:53;;;;;;;8.00;2.70;;;;;;;18.94;74.10;98411.93;104873;1271;73093;-24
2022/07/15 01:28:37;;;;;;;5.60;2.50;;;;;;;18.70;74.90;98412.52;104662;1273;71627;-23
2022/07/15 01:31:30;;;;;;;8.40;2.30;;;;;;;18.51;76.21;98410.41;105054;1271;61044;-24
2022/07/15 01:34:04;;;;;;;5.80;2.50;;;;;;;18.92;74.84;98404.58;104974;1271;61126;-24
2022/07/15 01:36:32;;;;;;;5.00;2.90;;;;;;;19.13;74.07;98396.70;104859;1271;76383;-24
2022/07/15 01:39:01;;;;;;;4.60;2.50;;;;;;;19.09;73.86;98388.29;104787;1271;77078;-24
2022/07/15 01:41:48;;;;;;;7.20;3.10;;;;;;;18.90;74.15;98388.87;104606;1274;74368;-24
2022/07/15 01:44:17;;;;;;;9.10;2.10;;;;;;;18.76;74.60;98390.58;104889;1271;64484;-24
2022/07/15 01:46:45;;;;;;;4.60;1.80;;;;;;;19.17;74.43;98394.55;104912;1271;61957;-24
2022/07/15 01:49:26;;;;;;;7.90;2.40;;;;;;;19.66;72.83;98393.70;104908;1271;76557;-24
2022/07/15 01:52:09;;;;;;;6.50;2.40;;;;;;;19.66;72.37;98381.27;104733;1271;76990;-24
2022/07/15 01:54:39;;;;;;;4.70;2.50;;;;;;;19.53;72.54;98372.27;105100;1271;75411;-24
2022/07/15 01:57:07;;;;;;;8.10;2.60;;;;;;;19.33;72.63;98362.80;104830;1271;61846;-24
2022/07/15 01:59:43;;;;;;;4.80;2.80;;;;;;;19.11;73.28;98358.81;104698;1274;61144;-24
2022/07/15 02:02:12;;;;;;;6.50;1.90;;;;;;;18.90;73.94;98359.80;104875;1271;76072;-24
2022/07/15 02:04:40;;;;;;;11.40;2.50;;;;;;;19.29;73.92;98369.55;104668;1274;76867;-24
2022/07/15 02:07:07;;;;;;;8.40;2.60;;;;;;;19.69;72.65;98370.91;104574;1272;75402;-24
2022/07/15 02:09:36;;;;;;;4.30;2.80;;;;;;;19.64;72.59;98380.41;104786;1272;61516;-24
2022/07/15 02:12:03;;;;;;;6.30;3.10;;;;;;;19.23;73.99;98384.31;104635;1274;61160;-24
2022/07/15 02:14:40;;;;;;;10.60;2.90;;;;;;;19.01;74.32;98381.02;104754;1274;76434;-23
2022/07/15 02:17:09;;;;;;;6.00;3.20;;;;;;;18.70;75.64;98373.09;104745;1272;74702;-24
2022/07/15 02:19:40;;;;;;;7.40;2.10;;;;;;;18.57;75.95;98366.27;104760;1274;75450;-23
2022/07/15 02:22:08;;;;;;;13.70;2.80;;;;;;;19.04;75.36;98356.02;104572;1274;61957;-24
2022/07/15 02:24:35;;;;;;;8.30;2.10;;;;;;;19.45;73.85;98346.73;104617;1274;62803;-24
2022/07/15 02:27:02;;;;;;;5.10;2.30;;;;;;;19.42;73.39;98348.64;104701;1273;76305;-24
2022/07/15 02:29:30;;;;;;;10.30;3.00;;;;;;;19.21;73.96;98338.39;104768;1274;75988;-24
2022/07/15 02:31:58;;;;;;;9.10;3.10;;;;;;;18.93;74.48;98329.23;104711;1274;73318;-24
2022/07/15 02:34:26;;;;;;;11.40;2.50;;;;;;;18.65;75.51;98328.20;104733;1273;61099;-23
2022/07/15 02:36:53;;;;;;;15.50;4.10;;;;;;;18.91;75.66;98334.09;104621;1274;61864;-24
2022/07/15 02:39:20;;;;;;;7.50;3.50;;;;;;;19.20;74.45;98331.98;104700;1274;75134;-24
2022/07/15 02:41:48;;;;;;;9.00;3.10;;;;;;;19.17;74.14;98323.24;104696;1274;76988;-23
2022/07/15 02:44:16;;;;;;;10.50;3.00;;;;;;;18.96;74.54;98319.59;104658;1274;75487;-24
2022/07/15 02:46:46;;;;;;;9.60;2.70;;;;;;;18.73;75.04;98311.60;104619;1274;61167;-23
2022/07/15 02:49:19;;;;;;;6.50;2.00;;;;;;;18.55;75.94;98306.98;104798;1273;61708;-23
2022/07/15 02:51:46;;;;;;;7.60;2.60;;;;;;;19.06;75.03;98289.93;104776;1274;76564;-23
2022/07/15 02:54:13;;;;;;;5.10;2.10;;;;;;;19.54;73.18;98276.31;104754;1273;77040;-24
2022/07/15 02:56:43;;;;;;;5.30;2.40;;;;;;;19.58;72.75;98287.09;104709;1274;75327;-24
2022/07/15 02:59:10;;;;;;;8.50;3.20;;;;;;;19.46;72.76;98293.36;104554;1274;63018;-24
2022/07/15 03:01:38;;;;;;;5.40;2.60;;;;;;;19.25;73.08;98294.84;104735;1273;63063;-24
2022/07/15 03:04:06;;;;;;;5.00;2.60;;;;;;;19.02;73.37;98288.19;104815;1274;76930;-24
2022/07/15 03:06:34;;;;;;;5.50;1.90;;;;;;;18.80;74.03;98277.71;104643;1274;74903;-24
2022/07/15 03:09:01;;;;;;;6.30;1.80;;;;;;;19.08;74.65;98286.23;104765;1274;74274;-24
2022/07/15 03:11:29;;;;;;;5.60;2.70;;;;;;;19.51;73.17;98287.48;104644;1274;63119;-24
2022/07/15 03:13:56;;;;;;;5.20;2.10;;;;;;;19.62;72.77;98279.21;104678;1274;61105;-24
2022/07/15 03:16:24;;;;;;;9.10;2.70;;;;;;;19.76;72.03;98281.12;104691;1274;76508;-24
2022/07/15 03:18:52;;;;;;;5.60;3.10;;;;;;;19.80;71.57;98285.02;104828;1274;77084;-24
2022/07/15 03:21:21;;;;;;;4.90;2.60;;;;;;;19.75;71.92;98287.51;104705;1274;75194;-24
2022/07/15 03:23:49;;;;;;;7.70;2.00;;;;;;;19.68;72.47;98296.22;104623;1274;63456;-24
2022/07/15 03:26:16;;;;;;;4.10;1.70;;;;;;;20.19;72.13;98300.61;104596;1274;61127;-24
2022/07/15 03:28:44;;;;;;;6.40;2.40;;;;;;;20.75;69.63;98303.77;104792;1274;76525;-24
2022/07/15 03:31:12;;;;;;;4.10;2.20;;;;;;;20.82;69.35;98298.75;104919;1274;77065;-24
2022/07/15 03:33:40;;;;;;;6.30;2.40;;;;;;;20.68;69.24;98291.79;105104;1274;74406;-24
2022/07/15 03:36:08;;;;;;;3.00;2.30;;;;;;;20.40;69.71;98297.64;105162;1274;61700;-24
2022/07/15 03:38:35;;;;;;;4.60;2.40;;;;;;;19.92;71.13;98299.46;104997;1274;62068;-24
2022/07/15 03:41:04;;;;;;;5.70;2.70;;;;;;;19.50;72.68;98305.63;104736;1274;75816;-24
2022/07/15 03:43:32;;;;;;;2.70;1.80;;;;;;;19.28;73.36;98301.02;104848;1273;76981;-24
2022/07/15 03:45:59;;;;;;;2.80;2.10;;;;;;;19.59;73.63;98301.55;104755;1272;74819;-25
2022/07/15 03:48:28;;;;;;;6.80;2.30;;;;;;;20.00;71.96;98304.39;104746;1273;61112;-25
2022/07/15 03:50:55;;;;;;;4.20;2.30;;;;;;;19.97;71.88;98301.63;104790;1274;61737;-25
2022/07/15 03:53:23;;;;;;;3.70;2.50;;;;;;;19.72;72.45;98314.02;104661;1274;76600;-24
2022/07/15 03:55:50;;;;;;;4.80;2.20;;;;;;;19.44;73.85;98317.41;104707;1274;76902;-24
2022/07/15 03:58:17;;;;;;;3.40;2.40;;;;;;;19.21;74.23;98302.67;104836;1274;74741;-24
2022/07/15 04:00:45;;;;;;;2.10;1.90;;;;;;;19.03;75.20;98311.09;104750;1274;64492;-25
2022/07/15 04:03:13;;;;;;;4.20;2.30;;;;;;;19.31;75.45;98323.73;104792;1271;61775;-25
2022/07/15 04:05:43;;;;;;;4.20;2.20;;;;;;;19.43;75.07;98331.42;104815;1274;75821;-26
2022/07/15 04:08:11;;;;;;;3.00;2.70;;;;;;;19.42;75.17;98335.15;104829;1272;76998;-24
2022/07/15 04:10:39;;;;;;;5.50;3.00;;;;;;;18.95;76.92;98347.67;104827;1274;75675;-24
2022/07/15 04:13:09;;;;;;;4.30;3.30;;;;;;;18.46;79.04;98368.40;104684;1274;61770;-24
2022/07/15 04:15:37;;;;;;;4.90;2.70;;;;;;;18.17;80.79;98375.91;104743;1274;63104;-24
2022/07/15 04:18:04;;;;;;;8.20;3.30;;;;;;;18.60;78.95;98374.45;104833;1274;76296;-24
2022/07/15 04:20:32;;;;;;;3.30;3.00;;;;;;;18.72;77.98;98384.95;104787;1274;76034;-24
2022/07/15 04:23:04;;;;;;;4.30;3.60;;;;;;;18.54;78.60;98388.05;104743;1274;75731;-25
2022/07/15 04:25:32;;;;;;;3.80;3.40;;;;;;;18.46;79.01;98393.52;104727;1274;61205;-26
2022/07/15 04:27:59;;;;;;;3.30;2.90;;;;;;;18.49;79.27;98395.52;104635;1274;62031;-24
2022/07/15 04:30:29;;;;;;;5.80;3.60;;;;;;;18.96;77.70;98396.07;104646;1274;76575;-24
2022/07/15 04:32:56;;;;;;;3.30;3.00;;;;;;;19.29;76.19;98395.39;104769;1274;76997;-24
2022/07/15 04:35:26;;;;;;;7.20;3.20;;;;;;;19.37;75.63;98380.88;104796;1274;75189;-24
2022/07/15 04:38:04;;;;;;;5.20;3.60;;;;;;;19.36;75.32;98366.83;104756;1274;62662;-24
2022/07/15 04:40:32;;;;;;;4.80;2.60;;;;;;;19.33;75.32;98391.14;104652;1274;62188;-24
2022/07/15 04:43:03;;;;;;;4.70;2.50;;;;;;;19.74;74.95;98394.57;104719;1273;76636;-24
2022/07/15 04:45:30;;;;;;;3.80;2.90;;;;;;;20.40;72.16;98377.12;104664;1274;76399;-24
2022/07/15 04:47:58;;;;;;;5.60;2.80;;;;;;;20.46;71.32;98374.71;104607;1274;74441;-25
2022/07/15 04:50:51;;;;;;;4.10;3.10;;;;;;;20.57;71.05;98387.71;104717;1271;62091;-24
2022/07/15 04:53:23;;;;;;;5.00;3.00;;;;;;;20.53;71.09;98399.24;104650;1274;62752;-24
2022/07/15 04:55:52;;;;;;;4.90;2.80;;;;;;;20.43;70.76;98407.02;104890;1272;76500;-25
2022/07/15 04:58:19;;;;;;;2.90;2.20;;;;;;;20.38;71.08;98411.66;104608;1271;77041;-24
2022/07/15 05:00:47;;;;;;;5.50;2.70;;;;;;;20.49;69.92;98426.83;104711;1274;75201;-24
2022/07/15 05:03:15;;;;;;;4.00;2.30;;;;;;;20.73;68.86;98431.16;104839;1271;62769;-25
2022/07/15 05:05:43;;;;;;;7.60;3.10;;;;;;;20.52;69.55;98445.94;104841;1274;61975;-25
2022/07/15 05:08:13;;;;;;;4.00;3.10;;;;;;;20.11;70.50;98448.29;104752;1274;75868;-24
2022/07/15 05:10:46;;;;;;;3.60;3.00;;;;;;;19.72;71.32;98445.22;104951;1271;76979;-26
2022/07/15 05:13:14;;;;;;;3.40;3.10;;;;;;;19.23;72.54;98450.08;105090;1272;74149;-25
2022/07/15 05:15:41;;;;;;;3.60;3.10;;;;;;;18.87;73.61;98447.92;104813;1271;61980;-25
2022/07/15 05:18:14;;;;;;;3.90;2.50;;;;;;;18.75;74.63;98448.79;105087;1273;61950;-25
2022/07/15 05:20:42;;;;;;;4.30;3.00;;;;;;;19.08;73.73;98453.92;104776;1274;75414;-24
2022/07/15 05:23:12;;;;;;;5.50;3.40;;;;;;;19.26;72.78;98450.52;104760;1274;77051;-24
2022/07/15 05:25:43;;;;;;;6.10;3.90;;;;;;;19.13;73.42;98454.05;104836;1273;75404;-24
2022/07/15 05:28:11;;;;;;;3.50;3.10;;;;;;;18.75;74.22;98450.40;104573;1272;62188;-24
2022/07/15 05:30:40;;;;;;;6.80;3.60;;;;;;;18.57;74.62;98444.85;104645;1274;62898;-25
2022/07/15 05:33:09;;;;;;;4.40;3.60;;;;;;;18.21;75.11;98466.48;104751;1274;76342;-24
2022/07/15 05:35:36;;;;;;;3.30;2.50;;;;;;;17.70;75.82;98460.25;104675;1273;74751;-24
2022/07/15 05:38:04;;;;;;;4.60;2.70;;;;;;;18.06;74.35;98445.59;104786;1274;75451;-24
2022/07/15 05:40:33;;;;;;;3.80;3.20;;;;;;;18.23;73.12;98434.92;104638;1274;62164;-24
2022/07/15 05:43:00;;;;;;;5.40;3.80;;;;;;;17.97;73.45;98438.80;104790;1272;61697;-24
2022/07/15 05:45:31;;;;;;;5.50;3.30;;;;;;;17.73;74.15;98444.15;104803;1274;76318;-24
2022/07/15 05:48:03;;;;;;;4.40;3.10;;;;;;;17.37;75.17;98436.34;104706;1274;76081;-24
2022/07/15 05:50:34;;;;;;;6.10;2.80;;;;;;;17.25;74.96;98437.80;104587;1274;75603;-24
2022/07/15 05:53:01;;;;;;;2.50;2.00;;;;;;;17.20;74.93;98445.23;104735;1274;64587;-24
2022/07/15 05:55:31;;;;;;;3.00;2.40;;;;;;;17.39;73.80;98434.34;105112;1274;62110;-24
2022/07/15 05:57:59;;;;;;;4.60;3.20;;;;;;;17.64;73.32;98423.56;105103;1274;76295;-24
2022/07/15 06:00:32;;;;;;;5.50;2.60;;;;;;;17.22;74.42;98436.68;104761;1274;77246;-24
2022/07/15 06:03:01;;;;;;;4.10;2.70;;;;;;;17.47;72.95;98447.42;105083;1272;75311;-24
2022/07/15 06:05:30;;;;;;;5.60;2.20;;;;;;;17.34;72.49;98435.82;105143;1274;62768;-24
2022/07/15 06:08:00;;;;;;;6.40;2.60;;;;;;;17.08;73.29;98426.95;104993;1274;62959;-24
2022/07/15 06:10:31;;;;;;;3.40;2.10;;;;;;;16.88;74.00;98417.33;104976;1274;75331;-24
2022/07/15 06:12:58;;;;;;;2.20;1.70;;;;;;;16.92;74.04;98428.43;105115;1274;75852;-24
2022/07/15 06:15:26;;;;;;;3.70;2.00;;;;;;;17.31;72.48;98435.22;104740;1274;74599;-24
2022/07/15 06:17:56;;;;;;;2.50;2.00;;;;;;;17.56;71.16;98437.23;104763;1274;61971;-24
2022/07/15 06:20:24;;;;;;;3.00;1.80;;;;;;;16.97;72.63;98440.15;104678;1274;61964;-25
2022/07/15 06:22:52;;;;;;;4.00;2.30;;;;;;;17.35;72.35;98448.38;104755;1273;76571;-25
2022/07/15 06:25:21;;;;;;;2.50;2.20;;;;;;;17.28;71.90;98447.53;104605;1274;75137;-25
2022/07/15 06:27:49;;;;;;;5.80;2.10;;;;;;;17.37;71.80;98437.67;104758;1274;74619;-25
2022/07/15 06:30:16;;;;;;;3.30;1.90;;;;;;;17.49;71.70;98449.15;104731;1274;61029;-24
2022/07/15 06:32:44;;;;;;;12.10;2.40;;;;;;;17.43;71.87;98450.22;104674;1274;61453;-25
2022/07/15 06:35:11;;;;;;;3.10;1.80;;;;;;;17.29;71.86;98431.66;104678;1274;75579;-25
2022/07/15 06:37:39;;;;;;;2.00;1.80;;;;;;;17.22;71.40;98412.67;104655;1274;77299;-25
2022/07/15 06:40:07;;;;;;;3.30;2.10;;;;;;;16.89;72.16;98413.05;104714;1274;75376;-25
2022/07/15 06:42:34;;;;;;;2.00;1.70;;;;;;;17.23;72.35;98424.59;104615;1274;61128;-25
2022/07/15 06:45:05;;;;;;;3.60;1.90;;;;;;;17.45;70.87;98428.95;104686;1274;62996;-25
2022/07/15 06:47:32;;;;;;;4.20;2.00;;;;;;;16.85;73.17;98439.23;104681;1272;76609;-25
2022/07/15 06:50:00;;;;;;;3.40;1.80;;;;;;;16.89;73.17;98441.85;104594;1274;77128;-25
2022/07/15 06:52:27;;;;;;;4.90;1.50;;;;;;;16.81;73.82;98452.16;104792;1274;75136;-25
2022/07/15 06:54:57;;;;;;;2.60;1.90;;;;;;;17.17;72.22;98454.95;104793;1274;61151;-25
2022/07/15 06:57:24;;;;;;;3.00;1.80;;;;;;;16.79;73.14;98457.11;104695;1274;61154;-25
2022/07/15 06:59:53;;;;;;;3.10;1.70;;;;;;;17.32;72.80;98466.05;104789;1274;76888;-25
2022/07/15 07:02:22;;;;;;;3.00;2.20;;;;;;;17.57;71.06;98458.47;105128;1274;77078;-26
2022/07/15 07:04:50;;;;;;;5.30;2.10;;;;;;;16.92;73.17;98460.30;105109;1274;74098;-25
2022/07/15 07:07:18;;;;;;;3.50;2.10;;;;;;;16.76;73.94;98457.96;105112;1273;62753;-24
2022/07/15 07:09:46;;;;;;;2.40;2.10;;;;;;;16.92;74.33;98463.94;104749;1274;61966;-24
2022/07/15 07:12:13;;;;;;;3.00;1.50;;;;;;;17.12;73.30;98468.24;104757;1274;76527;-24
2022/07/15 07:14:41;;;;;;;9.40;1.50;;;;;;;17.73;71.33;98468.70;104777;1274;77019;-24
2022/07/15 07:17:08;;;;;;;10.10;2.00;;;;;;;18.25;68.55;98461.91;104602;1274;74294;-24
2022/07/15 07:19:36;;;;;;;3.10;1.70;;;;;;;18.01;69.09;98462.17;104677;1274;63010;-24
2022/07/15 07:22:04;;;;;;;2.90;2.00;;;;;;;17.87;69.75;98468.77;104640;1274;61239;-24
2022/07/15 07:24:31;;;;;;;2.10;1.70;;;;;;;18.05;69.94;98470.52;104845;1274;76712;-24
2022/07/15 07:26:58;;;;;;;4.90;2.00;;;;;;;17.73;70.72;98468.66;104935;1274;77138;-24
2022/07/15 07:29:32;;;;;;;4.70;2.20;;;;;;;17.85;69.79;98479.96;104682;1274;75546;-25
2022/07/15 07:32:00;;;;;;;4.50;1.90;;;;;;;17.36;71.39;98484.48;104779;1271;61156;-24
2022/07/15 07:34:27;;;;;;;3.60;1.90;;;;;;;17.29;72.49;98489.76;104907;1272;61048;-26
2022/07/15 07:36:54;;;;;;;3.80;1.60;;;;;;;17.75;71.69;98496.58;104686;1274;76586;-25
2022/07/15 07:39:22;;;;;;;3.00;1.40;;;;;;;18.55;69.31;98494.27;104885;1273;76803;-25
2022/07/15 07:41:53;;;;;;;1.70;1.60;;;;;;;18.83;67.44;98484.66;104806;1271;74225;-25
2022/07/15 07:44:21;;;;;;;1.80;1.60;;;;;;;19.05;67.35;98483.20;104714;1274;61412;-25
2022/07/15 07:46:48;;;;;;;2.70;2.00;;;;;;;18.19;67.96;98489.20;104646;1274;61213;-25
2022/07/15 07:49:16;;;;;;;2.10;1.60;;;;;;;18.12;69.54;98494.40;104844;1274;76516;-25
2022/07/15 07:52:04;;;;;;;2.00;1.80;;;;;;;18.60;68.47;98499.62;104698;1274;76002;-25
2022/07/15 07:54:32;;;;;;;3.50;2.00;;;;;;;18.73;67.83;98496.42;104560;1274;73206;-25
2022/07/15 07:56:59;;;;;;;1.80;1.40;;;;;;;18.52;67.56;98496.60;104766;1274;63163;-25
2022/07/15 07:59:27;;;;;;;2.40;1.40;;;;;;;18.42;67.76;98505.52;104863;1274;62138;-25
2022/07/15 08:01:54;;;;;;;2.80;1.70;;;;;;;18.23;68.50;98512.73;104619;1274;76415;-25
2022/07/15 08:04:22;;;;;;;1.70;0.90;;;;;;;18.14;69.11;98523.36;104841;1271;75786;-25
2022/07/15 08:06:50;;;;;;;1.70;1.00;;;;;;;18.71;67.60;98519.19;104764;1271;74353;-25
2022/07/15 08:09:17;;;;;;;2.00;1.40;;;;;;;19.12;66.05;98510.52;104744;1271;61226;-25
2022/07/15 08:11:45;;;;;;;4.30;1.70;;;;;;;19.01;65.84;98514.14;104727;1274;61118;-25
2022/07/15 08:14:12;;;;;;;3.00;1.40;;;;;;;18.70;66.28;98522.54;104849;1271;75540;-25
2022/07/15 08:16:42;;;;;;;1.60;1.40;;;;;;;18.46;67.51;98534.52;104810;1274;76953;-25
2022/07/15 08:19:15;;;;;;;4.10;1.90;;;;;;;18.22;68.49;98545.70;104795;1271;75534;-25
2022/07/15 08:21:43;;;;;;;5.20;1.90;;;;;;;17.98;69.00;98538.42;104653;1271;63054;-25
2022/07/15 08:24:12;;;;;;;2.10;1.50;;;;;;;17.89;69.68;98532.80;105009;1271;63045;-25
2022/07/15 08:26:39;;;;;;;1.50;1.30;;;;;;;17.86;69.67;98529.62;104816;1274;76576;-24
2022/07/15 08:29:07;;;;;;;1.80;1.30;;;;;;;17.68;70.85;98537.91;105047;1271;76992;-23
2022/07/15 08:31:35;;;;;;;3.80;1.70;;;;;;;18.07;69.98;98545.29;104725;1271;74190;-24
2022/07/15 08:34:05;;;;;;;9.10;1.50;;;;;;;18.68;68.20;98565.85;104686;1271;62816;-24
2022/07/15 08:36:32;;;;;;;2.30;1.80;;;;;;;18.79;65.94;98569.59;104621;1274;61630;-24
2022/07/15 08:39:00;;;;;;;1.80;1.20;;;;;;;18.82;66.48;98565.55;104682;1274;75572;-24
2022/07/15 08:41:28;;;;;;;5.10;1.50;;;;;;;18.81;66.83;98567.02;104851;1271;77066;-24
2022/07/15 08:43:56;;;;;;;2.80;1.70;;;;;;;18.79;65.78;98559.04;104859;1271;75761;-24
2022/07/15 08:46:23;;;;;;;1.60;1.30;;;;;;;18.82;65.21;98567.13;104727;1274;61686;-24
2022/07/15 08:48:51;;;;;;;1.60;1.50;;;;;;;18.79;65.31;98563.91;104954;1274;61133;-24
2022/07/15 08:51:23;;;;;;;2.90;1.80;;;;;;;18.77;65.59;98568.37;104743;1274;76581;-24
2022/07/15 08:53:54;;;;;;;3.90;1.70;;;;;;;18.88;65.97;98569.34;104692;1274;75326;-24
2022/07/15 08:56:22;;;;;;;2.10;1.70;;;;;;;19.06;65.66;98567.27;104859;1271;74446;-24
2022/07/15 08:58:49;;;;;;;2.10;1.40;;;;;;;19.17;65.02;98570.43;104603;1274;64762;-24
2022/07/15 09:01:30;;;;;;;2.00;1.40;;;;;;;19.70;64.08;98571.86;105071;1271;61960;-24
2022/07/15 09:03:58;;;;;;;2.10;1.40;;;;;;;20.74;61.49;98572.41;105024;1271;75599;-24
2022/07/15 09:06:37;;;;;;;2.90;1.40;;;;;;;21.50;57.88;98572.60;104666;1271;76950;-24
2022/07/15 09:09:25;;;;;;;2.00;1.50;;;;;;;21.65;57.53;98572.92;105128;1271;75404;-24
2022/07/15 09:11:54;;;;;;;3.10;1.70;;;;;;;21.53;58.02;98578.70;104756;1274;62299;-24
2022/07/15 09:14:33;;;;;;;4.10;1.50;;;;;;;21.33;58.29;98583.95;105109;1271;63162;-24
2022/07/15 09:17:09;;;;;;;5.90;1.50;;;;;;;21.39;57.70;98582.71;104874;1274;76717;-24
2022/07/15 09:19:57;;;;;;;58.10;3.60;;;;;;;21.66;57.55;98577.01;104878;1271;77000;-24
2022/07/15 09:22:29;;;;;;;1.60;1.50;;;;;;;21.69;57.86;98579.45;104921;1271;75369;-24
2022/07/15 09:25:04;;;;;;;2.20;1.70;;;;;;;21.76;56.84;98582.73;104687;1271;61517;-24
2022/07/15 09:27:34;;;;;;;1.90;1.50;;;;;;;21.91;56.06;98586.05;105112;1271;61104;-24
2022/07/15 09:36:02;;;;;;;2.50;1.50;;;;;;;22.40;54.52;98581.89;104540;1275;74011;-23
2022/07/15 09:38:33;;;;;;;1.50;1.30;;;;;;;22.52;54.61;98585.20;105113;1271;61199;-23
2022/07/15 09:41:01;;;;;;;1.40;1.30;;;;;;;22.67;53.98;98590.80;104661;1274;61077;-24
2022/07/15 09:43:29;;;;;;;1.90;1.60;;;;;;;22.43;53.85;98590.98;104801;1274;76339;-24
2022/07/15 09:46:01;;;;;;;2.70;1.50;;;;;;;22.51;54.50;98593.33;104746;1275;75504;-24
2022/07/15 09:48:29;;;;;;;3.30;1.40;;;;;;;22.55;54.35;98590.91;105109;1271;75211;-24
2022/07/15 09:51:00;;;;;;;2.00;1.30;;;;;;;22.40;55.11;98585.75;105044;1271;63077;-24
2022/07/15 09:53:28;;;;;;;1.40;1.30;;;;;;;22.10;54.93;98588.69;104681;1271;61039;-24
2022/07/15 09:55:56;;;;;;;3.00;1.20;;;;;;;21.73;55.80;98588.90;104699;1271;74519;-23
2022/07/15 09:58:23;;;;;;;4.50;1.40;;;;;;;21.61;56.67;98586.63;104755;1274;77004;-24
2022/07/15 10:00:52;;;;;;;1.20;1.00;;;;;;;21.42;57.90;98591.88;104725;1271;74434;-24
2022/07/15 10:03:23;;;;;;;1.70;1.50;;;;;;;20.95;57.33;98590.35;104708;1272;61067;-24
2022/07/15 10:05:54;;;;;;;1.30;1.10;;;;;;;20.98;58.14;98596.63;104751;1272;61103;-24
2022/07/15 10:08:21;;;;;;;1.50;1.20;;;;;;;21.41;56.30;98599.99;104415;1274;76318;-24
2022/07/15 10:10:51;;;;;;;2.20;1.40;;;;;;;21.76;57.01;98603.91;104660;1272;77082;-24
2022/07/15 10:13:23;;;;;;;3.40;1.30;;;;;;;22.25;55.64;98594.09;104762;1272;75498;-24
2022/07/15 10:16:13;;;;;;;1.00;0.90;;;;;;;22.46;53.80;98597.86;104764;1274;62620;-24
2022/07/15 10:19:05;;;;;;;1.30;1.00;;;;;;;22.46;53.31;98585.99;104573;1274;61976;-24
2022/07/15 10:21:46;;;;;;;2.30;1.10;;;;;;;22.63;53.87;98591.24;104771;1274;74946;-24
2022/07/15 10:24:25;;;;;;;1.30;1.10;;;;;;;22.60;52.20;98595.70;104575;1274;77114;-24
2022/07/15 10:26:56;;;;;;;1.00;0.90;;;;;;;22.82;51.98;98592.85;104856;1274;74207;-24
2022/07/15 10:29:23;;;;;;;1.00;0.90;;;;;;;22.93;52.36;98593.13;104803;1274;62886;-24
2022/07/15 10:31:58;;;;;;;1.60;1.20;;;;;;;22.99;50.31;98599.16;105067;1274;62935;-24
2022/07/15 10:34:34;;;;;;;1.10;1.00;;;;;;;23.17;51.47;98598.24;104975;1274;76554;-24
2022/07/15 10:37:10;;;;;;;1.10;1.00;;;;;;;23.35;50.93;98594.87;104863;1274;76968;-25
2022/07/15 10:39:52;;;;;;;1.90;1.00;;;;;;;23.10;51.27;98595.53;104883;1271;75408;-24
2022/07/15 10:42:19;;;;;;;1.90;1.70;;;;;;;22.83;52.18;98599.25;104740;1274;61211;-24
2022/07/15 10:45:00;;;;;;;3.50;1.20;;;;;;;23.30;51.61;98597.68;104837;1274;62137;-24
2022/07/15 10:47:27;;;;;;;2.70;1.30;;;;;;;23.70;51.09;98595.56;105122;1274;76588;-25
2022/07/15 10:49:55;;;;;;;1.00;0.90;;;;;;;23.78;49.33;98596.16;105025;1274;77073;-24
2022/07/15 10:52:28;;;;;;;1.60;1.00;;;;;;;23.80;49.25;98599.10;104778;1274;75672;-24
2022/07/15 10:54:57;;;;;;;1.80;1.20;;;;;;;23.49;47.28;98602.35;104635;1275;62200;-24
2022/07/15 10:57:39;;;;;;;1.60;1.10;;;;;;;23.01;49.86;98606.67;104801;1274;61753;-24
2022/07/15 11:00:19;;;;;;;1.20;1.10;;;;;;;23.03;49.42;98609.66;104805;1272;76499;-24
2022/07/15 11:03:12;;;;;;;3.30;0.90;;;;;;;23.10;49.76;98605.39;105095;1274;75815;-24
2022/07/15 11:05:53;;;;;;;3.30;1.10;;;;;;;22.95;49.63;98614.52;104953;1274;72685;-24
2022/07/15 11:08:31;;;;;;;1.40;0.90;;;;;;;23.02;49.15;98611.91;104957;1274;61580;-24
2022/07/15 11:11:14;;;;;;;1.40;1.00;;;;;;;22.97;50.12;98623.85;104719;1274;62942;-24
2022/07/15 11:13:43;;;;;;;1.40;1.30;;;;;;;22.91;50.28;98619.67;104582;1274;75807;-24
2022/07/15 11:16:15;;;;;;;1.10;1.00;;;;;;;23.25;50.48;98621.06;104489;1274;477519;-24
2022/07/15 11:18:49;;;;;;;1.70;1.20;;;;;;;22.88;50.22;98617.77;104417;1274;75440;-24
2022/07/15 11:21:17;;;;;;;1.20;1.00;;;;;;;22.85;52.50;98622.63;104732;1274;61018;-24
2022/07/15 11:23:44;;;;;;;11.00;1.60;;;;;;;22.65;51.02;98625.63;104756;1272;63081;-24
2022/07/15 11:26:12;;;;;;;4.00;1.30;;;;;;;22.12;52.00;98622.30;104603;1274;75516;-24
2022/07/15 11:28:54;;;;;;;1.60;1.40;;;;;;;22.00;53.26;98623.61;104669;1274;75958;-24
2022/07/15 11:31:22;;;;;;;2.90;1.20;;;;;;;22.24;51.37;98621.30;104731;1272;75131;-24
2022/07/15 11:33:56;;;;;;;1.50;1.20;;;;;;;22.39;52.10;98623.52;104652;1275;61243;-24
2022/07/15 11:36:23;;;;;;;1.90;1.20;;;;;;;22.87;53.19;98622.58;104610;1274;63010;-24
2022/07/15 11:38:51;;;;;;;1.70;1.20;;;;;;;23.03;50.93;98621.27;104781;1273;75469;-24
2022/07/15 11:46:53;;;;;;;1.70;1.40;;;;;;;22.77;52.94;98617.63;104984;1274;62927;-24
2022/07/15 11:49:41;;;;;;;1.80;1.10;;;;;;;23.06;51.47;98611.27;105102;1274;61125;-24
2022/07/15 11:52:10;;;;;;;1.50;1.00;;;;;;;23.21;51.55;98606.75;104814;1274;75713;-24
2022/07/15 11:54:39;;;;;;;2.70;1.70;;;;;;;23.53;49.37;98604.49;104637;1274;76775;-24
2022/07/15 11:57:09;;;;;;;1.40;1.10;;;;;;;23.79;49.22;98603.85;104647;1275;74508;-24